createdAt,value
2018-09-08T00:00:45.762Z,18.87
2018-09-08T00:01:50.209Z,18.05
2018-09-08T00:02:54.885Z,20.00
2018-09-08T00:03:59.699Z,18.35
2018-09-08T00:05:04.037Z,18.12
2018-09-08T00:06:08.581Z,18.57
2018-09-08T00:07:18.946Z,18.73
2018-09-08T00:08:23.534Z,18.17
2018-09-08T00:09:27.753Z,18.80
2018-09-08T00:10:32.829Z,17.77
2018-09-08T00:11:37.495Z,18.90
2018-09-08T00:12:42.121Z,17.70
2018-09-08T00:13:46.315Z,17.10
2018-09-08T00:14:49.846Z,17.40
2018-09-08T00:15:59.480Z,17.92
2018-09-08T00:17:09.756Z,15.95
2018-09-08T00:18:19.315Z,18.60
2018-09-08T00:19:29.093Z,18.00
2018-09-08T00:20:38.808Z,16.55
2018-09-08T00:21:48.535Z,16.87
2018-09-08T00:22:58.295Z,16.42
2018-09-08T00:24:08.032Z,18.82
2018-09-08T00:25:17.766Z,16.55
2018-09-08T00:26:27.801Z,18.35
2018-09-08T00:27:37.430Z,16.07
2018-09-08T00:28:46.267Z,16.50
2018-09-08T00:29:51.532Z,18.50
2018-09-08T00:30:57.076Z,17.42
2018-09-08T00:32:03.638Z,17.02
2018-09-08T00:33:07.926Z,16.07
2018-09-08T00:34:12.086Z,16.32
2018-09-08T00:35:16.535Z,16.90
2018-09-08T00:36:20.867Z,13.20
2018-09-08T00:37:25.177Z,13.70
2018-09-08T00:38:29.908Z,15.40
2018-09-08T00:39:34.246Z,14.83
2018-09-08T00:40:38.578Z,13.88
2018-09-08T00:41:42.750Z,13.80
2018-09-08T00:42:47.629Z,14.40
2018-09-08T00:43:52.163Z,12.65
2018-09-08T00:44:56.305Z,14.15
2018-09-08T00:46:00.797Z,14.47
2018-09-08T00:47:05.155Z,12.65
2018-09-08T00:48:09.475Z,12.33
2018-09-08T00:49:13.638Z,13.28
2018-09-08T00:50:17.802Z,13.03
2018-09-08T00:51:22.258Z,13.18
2018-09-08T00:52:26.640Z,11.93
2018-09-08T00:53:31.029Z,11.70
2018-09-08T00:54:35.202Z,11.53
2018-09-08T00:55:39.560Z,11.22
2018-09-08T00:56:43.819Z,11.15
2018-09-08T00:57:48.197Z,11.30
2018-09-08T00:58:57.874Z,10.28
2018-09-08T01:00:02.103Z,12.82
2018-09-08T01:01:06.369Z,10.88
2018-09-08T01:02:10.526Z,10.48
2018-09-08T01:03:14.768Z,11.25
2018-09-08T01:04:19.104Z,11.15
2018-09-08T01:05:23.433Z,12.65
2018-09-08T01:06:27.777Z,17.35
2018-09-08T01:07:32.625Z,10.58
2018-09-08T01:08:37.328Z,11.22
2018-09-08T01:09:41.738Z,11.88
2018-09-08T01:10:45.886Z,11.75
2018-09-08T01:11:50.257Z,12.43
2018-09-08T01:12:54.697Z,12.25
2018-09-08T01:13:58.916Z,11.93
2018-09-08T01:15:03.624Z,11.63
2018-09-08T01:16:07.682Z,12.50
2018-09-08T01:17:12.035Z,11.60
2018-09-08T01:18:16.394Z,11.53
2018-09-08T01:19:20.901Z,12.80
2018-09-08T01:20:25.282Z,11.78
2018-09-08T01:21:31.516Z,13.15
2018-09-08T01:22:35.928Z,11.03
2018-09-08T01:23:40.356Z,12.58
2018-09-08T01:24:44.693Z,13.88
2018-09-08T01:25:49.035Z,13.13
2018-09-08T01:26:53.371Z,11.85
2018-09-08T01:27:57.632Z,11.08
2018-09-08T01:29:01.787Z,12.65
2018-09-08T01:30:06.499Z,12.47
2018-09-08T01:31:10.866Z,11.05
2018-09-08T01:32:15.108Z,13.13
2018-09-08T01:33:19.355Z,12.43
2018-09-08T01:34:23.502Z,15.43
2018-09-08T01:35:27.689Z,12.93
2018-09-08T01:36:31.963Z,11.35
2018-09-08T01:37:36.174Z,13.03
2018-09-08T01:38:40.682Z,12.23
2018-09-08T01:39:45.218Z,10.28
2018-09-08T01:40:49.780Z,12.18
2018-09-08T01:41:54.105Z,12.00
2018-09-08T01:42:58.517Z,12.35
2018-09-08T01:44:02.589Z,12.85
2018-09-08T01:45:07.424Z,12.78
2018-09-08T01:46:11.609Z,12.40
2018-09-08T01:47:15.824Z,12.20
2018-09-08T01:48:20.028Z,11.90
2018-09-08T01:49:24.238Z,12.68
2018-09-08T01:50:28.695Z,13.70
2018-09-08T01:51:33.182Z,13.62
2018-09-08T01:52:37.353Z,11.95
2018-09-08T01:53:41.480Z,13.10
2018-09-08T01:54:45.860Z,12.93
2018-09-08T01:55:50.061Z,13.40
2018-09-08T01:56:54.270Z,12.88
2018-09-08T01:57:58.511Z,13.75
2018-09-08T01:59:02.643Z,11.90
2018-09-08T02:00:09.113Z,12.43
2018-09-08T02:01:13.232Z,12.98
2018-09-08T02:02:24.327Z,13.25
2018-09-08T02:03:28.581Z,13.70
2018-09-08T02:04:32.967Z,12.07
2018-09-08T02:05:37.149Z,13.38
2018-09-08T02:06:42.450Z,13.38
2018-09-08T02:07:46.624Z,12.05
2018-09-08T02:08:50.797Z,13.28
2018-09-08T02:09:55.156Z,12.68
2018-09-08T02:10:59.494Z,12.15
2018-09-08T02:12:03.782Z,11.83
2018-09-08T02:13:08.160Z,12.53
2018-09-08T02:14:12.652Z,12.03
2018-09-08T02:15:16.907Z,12.20
2018-09-08T02:16:21.261Z,12.98
2018-09-08T02:17:25.516Z,12.50
2018-09-08T02:18:29.764Z,11.48
2018-09-08T02:19:33.983Z,12.10
2018-09-08T02:20:38.295Z,13.08
2018-09-08T02:21:42.559Z,13.65
2018-09-08T02:22:46.862Z,11.08
2018-09-08T02:23:51.097Z,13.48
2018-09-08T02:24:55.270Z,11.65
2018-09-08T02:26:01.597Z,13.50
2018-09-08T02:27:06.059Z,14.00
2018-09-08T02:28:10.245Z,12.98
2018-09-08T02:29:14.422Z,10.78
2018-09-08T02:30:18.711Z,12.33
2018-09-08T02:31:22.957Z,12.98
2018-09-08T02:32:27.112Z,12.60
2018-09-08T02:33:31.472Z,12.18
2018-09-08T02:34:35.845Z,12.00
2018-09-08T02:35:40.678Z,12.50
2018-09-08T02:36:45.034Z,13.30
2018-09-08T02:37:49.203Z,12.28
2018-09-08T02:38:53.455Z,14.90
2018-09-08T02:39:58.013Z,13.93
2018-09-08T02:41:02.283Z,12.90
2018-09-08T02:42:06.878Z,13.58
2018-09-08T02:43:11.354Z,12.98
2018-09-08T02:44:15.506Z,12.30
2018-09-08T02:45:19.643Z,13.78
2018-09-08T02:46:23.834Z,11.90
2018-09-08T02:47:28.114Z,12.68
2018-09-08T02:48:32.337Z,14.70
2018-09-08T02:50:40.079Z,12.63
2018-09-08T02:51:43.322Z,11.55
2018-09-08T02:52:46.554Z,12.25
2018-09-08T02:53:49.673Z,11.80
2018-09-08T02:54:52.810Z,12.13
2018-09-08T02:55:56.010Z,11.03
2018-09-08T02:56:59.117Z,13.72
2018-09-08T02:58:02.466Z,11.03
2018-09-08T02:59:05.741Z,11.53
2018-09-08T03:00:08.819Z,11.70
2018-09-08T03:01:12.006Z,11.65
2018-09-08T03:02:15.159Z,13.00
2018-09-08T03:03:18.428Z,12.15
2018-09-08T03:04:21.688Z,12.45
2018-09-08T03:05:24.788Z,12.98
2018-09-08T03:06:27.962Z,11.57
2018-09-08T03:07:31.175Z,13.78
2018-09-08T03:08:34.213Z,13.13
2018-09-08T03:09:37.309Z,13.25
2018-09-08T03:10:40.383Z,13.25
2018-09-08T03:11:43.573Z,12.43
2018-09-08T03:12:46.670Z,12.03
2018-09-08T03:13:50.073Z,13.93
2018-09-08T03:14:53.420Z,12.93
2018-09-08T03:15:56.609Z,12.82
2018-09-08T03:17:00.328Z,13.95
2018-09-08T03:18:03.647Z,12.47
2018-09-08T03:19:06.968Z,13.65
2018-09-08T03:20:10.062Z,12.75
2018-09-08T03:21:13.281Z,12.75
2018-09-08T03:22:16.369Z,13.83
2018-09-08T03:23:19.878Z,12.45
2018-09-08T03:24:23.486Z,12.30
2018-09-08T03:25:26.653Z,13.08
2018-09-08T03:26:29.711Z,14.03
2018-09-08T03:27:32.976Z,12.10
2018-09-08T03:28:36.161Z,13.10
2018-09-08T03:29:39.503Z,11.38
2018-09-08T03:30:42.559Z,12.28
2018-09-08T03:31:45.694Z,12.47
2018-09-08T03:32:48.761Z,12.28
2018-09-08T03:33:51.984Z,13.72
2018-09-08T03:34:55.263Z,11.73
2018-09-08T03:35:58.352Z,11.88
2018-09-08T03:37:01.675Z,11.40
2018-09-08T03:38:04.740Z,16.50
2018-09-08T03:39:07.949Z,12.47
2018-09-08T03:40:11.315Z,12.00
2018-09-08T03:41:14.592Z,12.00
2018-09-08T03:42:17.780Z,12.50
2018-09-08T03:43:21.000Z,13.08
2018-09-08T03:44:24.147Z,13.32
2018-09-08T03:45:27.249Z,13.30
2018-09-08T03:46:30.405Z,12.00
2018-09-08T03:47:33.466Z,11.68
2018-09-08T03:48:36.776Z,11.25
2018-09-08T03:49:39.842Z,11.90
2018-09-08T03:50:43.065Z,11.78
2018-09-08T03:51:46.107Z,12.07
2018-09-08T03:52:49.389Z,11.78
2018-09-08T03:53:52.630Z,12.98
2018-09-08T03:54:55.780Z,13.03
2018-09-08T03:55:58.833Z,12.43
2018-09-08T03:57:02.118Z,11.38
2018-09-08T03:58:05.373Z,12.90
2018-09-08T03:59:08.681Z,12.37
2018-09-08T04:00:11.816Z,11.60
2018-09-08T04:01:14.930Z,12.50
2018-09-08T04:02:18.078Z,12.93
2018-09-08T04:03:22.413Z,13.22
2018-09-08T04:04:26.781Z,12.43
2018-09-08T04:05:31.093Z,13.25
2018-09-08T04:06:35.389Z,11.05
2018-09-08T04:07:39.757Z,12.33
2018-09-08T04:08:44.321Z,11.55
2018-09-08T04:09:48.744Z,11.10
2018-09-08T04:10:52.868Z,13.30
2018-09-08T04:11:57.156Z,12.00
2018-09-08T04:13:01.468Z,12.55
2018-09-08T04:14:05.661Z,12.05
2018-09-08T04:15:09.917Z,11.90
2018-09-08T04:16:14.156Z,12.18
2018-09-08T04:17:18.362Z,16.50
2018-09-08T04:18:22.544Z,11.60
2018-09-08T04:19:26.813Z,12.73
2018-09-08T04:20:31.107Z,12.78
2018-09-08T04:21:35.460Z,13.93
2018-09-08T04:22:39.826Z,12.03
2018-09-08T04:23:44.122Z,11.88
2018-09-08T04:24:48.324Z,12.88
2018-09-08T04:25:52.471Z,11.85
2018-09-08T04:26:56.839Z,12.85
2018-09-08T04:28:01.349Z,12.58
2018-09-08T04:29:05.880Z,13.32
2018-09-08T04:30:10.194Z,12.18
2018-09-08T04:31:14.935Z,12.20
2018-09-08T04:32:19.083Z,12.75
2018-09-08T04:33:23.344Z,13.08
2018-09-08T04:34:27.500Z,12.35
2018-09-08T04:35:31.932Z,13.38
2018-09-08T04:36:36.373Z,12.70
2018-09-08T04:37:40.617Z,12.80
2018-09-08T04:38:44.791Z,14.07
2018-09-08T04:39:49.070Z,12.30
2018-09-08T04:40:53.419Z,12.58
2018-09-08T04:41:57.824Z,11.97
2018-09-08T04:43:02.311Z,12.43
2018-09-08T04:44:07.008Z,12.33
2018-09-08T04:45:11.367Z,14.55
2018-09-08T04:46:15.742Z,12.55
2018-09-08T04:47:20.142Z,11.80
2018-09-08T04:48:24.387Z,11.18
2018-09-08T04:49:28.651Z,12.70
2018-09-08T04:50:33.061Z,12.50
2018-09-08T04:51:37.325Z,12.63
2018-09-08T04:52:41.846Z,13.28
2018-09-08T04:53:46.159Z,12.90
2018-09-08T04:54:50.731Z,13.62
2018-09-08T04:55:54.919Z,12.73
2018-09-08T04:56:59.442Z,12.33
2018-09-08T04:58:03.822Z,11.85
2018-09-08T04:59:08.152Z,11.70
2018-09-08T05:00:12.497Z,12.68
2018-09-08T05:01:16.765Z,12.60
2018-09-08T05:02:21.106Z,11.83
2018-09-08T05:03:25.653Z,13.08
2018-09-08T05:04:29.893Z,13.13
2018-09-08T05:05:34.320Z,12.63
2018-09-08T05:06:38.865Z,13.65
2018-09-08T05:07:43.276Z,13.58
2018-09-08T05:08:47.470Z,12.25
2018-09-08T05:09:51.955Z,11.43
2018-09-08T05:10:56.371Z,13.10
2018-09-08T05:12:00.542Z,11.18
2018-09-08T05:13:04.765Z,11.68
2018-09-08T05:14:09.052Z,12.15
2018-09-08T05:15:13.812Z,14.07
2018-09-08T05:16:17.924Z,12.30
2018-09-08T05:17:22.240Z,12.25
2018-09-08T05:18:26.809Z,11.10
2018-09-08T05:19:30.873Z,12.82
2018-09-08T05:20:34.986Z,12.43
2018-09-08T05:21:39.273Z,12.23
2018-09-08T05:22:43.635Z,13.43
2018-09-08T05:23:47.885Z,12.73
2018-09-08T05:24:52.447Z,12.85
2018-09-08T05:25:56.744Z,13.13
2018-09-08T05:27:00.942Z,12.35
2018-09-08T05:28:05.392Z,12.82
2018-09-08T05:29:09.561Z,13.10
2018-09-08T05:30:13.760Z,12.80
2018-09-08T05:31:17.950Z,12.05
2018-09-08T05:32:22.404Z,12.28
2018-09-08T05:33:26.764Z,13.48
2018-09-08T05:34:31.230Z,13.22
2018-09-08T05:35:35.449Z,12.25
2018-09-08T05:36:39.685Z,13.03
2018-09-08T05:37:44.207Z,12.07
2018-09-08T05:38:48.744Z,13.70
2018-09-08T05:39:53.154Z,15.83
2018-09-08T05:40:57.341Z,12.10
2018-09-08T05:42:01.603Z,12.30
2018-09-08T05:43:06.138Z,12.90
2018-09-08T05:44:10.309Z,13.18
2018-09-08T05:45:14.444Z,13.70
2018-09-08T05:46:18.629Z,13.28
2018-09-08T05:47:23.037Z,13.13
2018-09-08T05:48:27.544Z,12.40
2018-09-08T05:49:31.900Z,12.43
2018-09-08T05:50:36.018Z,13.13
2018-09-08T05:51:40.100Z,13.03
2018-09-08T05:52:44.231Z,12.80
2018-09-08T05:53:48.341Z,12.35
2018-09-08T05:54:52.778Z,13.60
2018-09-08T05:55:57.085Z,12.73
2018-09-08T05:57:01.254Z,12.85
2018-09-08T05:58:05.725Z,12.20
2018-09-08T05:59:09.909Z,12.25
2018-09-08T06:00:14.114Z,12.65
2018-09-08T06:01:18.469Z,13.35
2018-09-08T06:02:22.923Z,11.78
2018-09-08T06:03:27.361Z,13.32
2018-09-08T06:04:31.797Z,13.22
2018-09-08T06:05:36.077Z,11.55
2018-09-08T06:06:40.574Z,13.13
2018-09-08T06:07:44.966Z,13.83
2018-09-08T06:08:49.103Z,13.40
2018-09-08T06:09:53.387Z,12.45
2018-09-08T06:10:57.954Z,12.78
2018-09-08T06:12:02.322Z,12.30
2018-09-08T06:13:06.728Z,13.85
2018-09-08T06:14:11.080Z,13.68
2018-09-08T06:15:15.447Z,11.80
2018-09-08T06:16:19.749Z,13.05
2018-09-08T06:17:24.139Z,12.45
2018-09-08T06:18:28.776Z,15.15
2018-09-08T06:19:33.285Z,13.53
2018-09-08T06:20:37.797Z,13.30
2018-09-08T06:21:42.023Z,13.45
2018-09-08T06:22:46.245Z,12.00
2018-09-08T06:23:50.598Z,14.63
2018-09-08T06:24:55.023Z,11.53
2018-09-08T06:25:59.225Z,13.20
2018-09-08T06:27:03.709Z,12.00
2018-09-08T06:28:08.149Z,12.82
2018-09-08T06:29:12.639Z,12.98
2018-09-08T06:30:17.338Z,13.15
2018-09-08T06:31:21.615Z,11.53
2018-09-08T06:32:25.851Z,12.50
2018-09-08T06:33:30.155Z,12.75
2018-09-08T06:34:34.401Z,13.55
2018-09-08T06:35:39.038Z,11.10
2018-09-08T06:36:43.557Z,10.05
2018-09-08T06:37:47.913Z,10.90
2018-09-08T06:38:52.179Z,11.48
2018-09-08T06:39:56.355Z,11.38
2018-09-08T06:41:00.987Z,12.25
2018-09-08T06:42:05.202Z,10.95
2018-09-08T06:43:09.546Z,12.18
2018-09-08T06:44:13.781Z,10.85
2018-09-08T06:45:18.129Z,9.95
2018-09-08T06:46:22.375Z,9.90
2018-09-08T06:47:26.628Z,10.43
2018-09-08T06:48:31.047Z,10.18
2018-09-08T06:49:35.757Z,10.88
2018-09-08T06:50:39.907Z,9.60
2018-09-08T06:51:44.080Z,10.50
2018-09-08T06:52:48.330Z,11.65
2018-09-08T06:53:52.502Z,10.53
2018-09-08T06:54:56.629Z,10.78
2018-09-08T06:56:00.931Z,11.30
2018-09-08T06:57:05.087Z,11.05
2018-09-08T06:58:09.218Z,11.85
2018-09-08T06:59:13.417Z,10.65
2018-09-08T07:00:17.789Z,10.10
2018-09-08T07:01:22.173Z,12.28
2018-09-08T07:02:26.323Z,10.85
2018-09-08T07:03:30.725Z,10.82
2018-09-08T07:04:35.252Z,9.48
2018-09-08T07:05:39.675Z,9.85
2018-09-08T07:06:44.031Z,10.05
2018-09-08T07:07:48.388Z,10.10
2018-09-08T07:08:52.619Z,9.63
2018-09-08T07:09:57.404Z,9.93
2018-09-08T07:11:01.914Z,10.55
2018-09-08T07:12:06.037Z,9.88
2018-09-08T07:13:10.261Z,9.28
2018-09-08T07:14:14.422Z,9.85
2018-09-08T07:15:18.725Z,9.93
2018-09-08T07:16:23.356Z,9.78
2018-09-08T07:17:27.482Z,8.70
2018-09-08T07:18:31.631Z,8.68
2018-09-08T07:19:35.988Z,8.95
2018-09-08T07:20:40.482Z,8.40
2018-09-08T07:21:44.926Z,8.63
2018-09-08T07:22:49.084Z,9.00
2018-09-08T07:23:53.357Z,8.18
2018-09-08T07:24:57.705Z,7.85
2018-09-08T07:26:02.708Z,8.48
2018-09-08T07:27:07.251Z,7.87
2018-09-08T07:28:11.643Z,7.45
2018-09-08T07:29:15.893Z,8.15
2018-09-08T07:30:20.125Z,7.90
2018-09-08T07:31:24.597Z,6.70
2018-09-08T07:32:28.850Z,7.85
2018-09-08T07:33:33.298Z,6.90
2018-09-08T07:34:37.677Z,8.23
2018-09-08T07:35:41.967Z,7.65
2018-09-08T07:36:46.280Z,7.60
2018-09-08T07:37:50.492Z,6.87
2018-09-08T07:38:54.632Z,8.10
2018-09-08T07:39:58.793Z,7.87
2018-09-08T07:41:03.087Z,8.60
2018-09-08T07:42:07.541Z,7.28
2018-09-08T07:43:12.279Z,8.10
2018-09-08T07:44:16.798Z,8.25
2018-09-08T07:45:21.146Z,8.53
2018-09-08T07:46:25.354Z,8.10
2018-09-08T07:47:29.650Z,8.10
2018-09-08T07:48:34.119Z,8.88
2018-09-08T07:49:38.439Z,8.05
2018-09-08T07:50:42.858Z,7.92
2018-09-08T07:51:47.189Z,6.78
2018-09-08T07:52:51.340Z,8.53
2018-09-08T07:53:55.515Z,8.25
2018-09-08T07:54:59.915Z,8.75
2018-09-08T07:56:04.130Z,7.90
2018-09-08T07:57:09.011Z,9.15
2018-09-08T07:58:13.460Z,9.00
2018-09-08T07:59:17.709Z,7.28
2018-09-08T08:00:21.863Z,7.67
2018-09-08T08:01:26.488Z,8.60
2018-09-08T08:02:31.156Z,8.43
2018-09-08T08:03:35.334Z,8.15
2018-09-08T08:04:39.671Z,8.68
2018-09-08T08:05:44.109Z,8.40
2018-09-08T08:06:48.440Z,9.60
2018-09-08T08:07:52.558Z,9.20
2018-09-08T08:08:56.933Z,10.30
2018-09-08T08:10:01.026Z,10.10
2018-09-08T08:11:05.537Z,8.60
2018-09-08T08:12:10.030Z,9.10
2018-09-08T08:13:14.400Z,7.85
2018-09-08T08:14:18.969Z,8.45
2018-09-08T08:15:23.467Z,8.60
2018-09-08T08:16:27.747Z,8.60
2018-09-08T08:17:31.831Z,8.68
2018-09-08T08:18:36.246Z,7.80
2018-09-08T08:19:40.726Z,7.90
2018-09-08T08:20:45.045Z,7.78
2018-09-08T08:21:49.173Z,8.05
2018-09-08T08:22:54.317Z,8.63
2018-09-08T08:23:58.464Z,8.63
2018-09-08T08:25:02.811Z,7.00
2018-09-08T08:26:07.248Z,11.20
2018-09-08T08:27:11.855Z,7.53
2018-09-08T08:28:15.980Z,8.85
2018-09-08T08:29:20.480Z,8.98
2018-09-08T08:30:24.958Z,8.75
2018-09-08T08:31:29.342Z,12.78
2018-09-08T08:32:33.491Z,12.20
2018-09-08T08:33:37.649Z,8.45
2018-09-08T08:34:41.948Z,7.30
2018-09-08T08:35:46.310Z,7.62
2018-09-08T08:36:50.620Z,7.90
2018-09-08T08:37:54.849Z,9.38
2018-09-08T08:38:58.960Z,9.88
2018-09-08T08:40:03.421Z,8.15
2018-09-08T08:41:07.654Z,8.33
2018-09-08T08:42:12.086Z,7.85
2018-09-08T08:43:16.211Z,7.05
2018-09-08T08:44:20.531Z,7.12
2018-09-08T08:45:24.702Z,7.53
2018-09-08T08:46:28.986Z,7.72
2018-09-08T08:47:33.423Z,7.15
2018-09-08T08:48:37.571Z,8.15
2018-09-08T08:49:41.980Z,8.55
2018-09-08T08:50:57.343Z,8.65
2018-09-08T08:52:13.298Z,8.25
2018-09-08T08:54:26.760Z,7.42
2018-09-08T08:55:31.067Z,7.83
2018-09-08T08:56:35.279Z,8.15
2018-09-08T08:57:39.499Z,7.53
2018-09-08T08:58:43.894Z,7.45
2018-09-08T08:59:48.060Z,9.00
2018-09-08T09:00:52.556Z,8.63
2018-09-08T09:01:57.016Z,8.58
2018-09-08T09:03:01.383Z,7.50
2018-09-08T09:04:05.646Z,12.45
2018-09-08T09:05:09.807Z,12.50
2018-09-08T09:06:13.999Z,10.23
2018-09-08T09:07:18.268Z,9.68
2018-09-08T09:08:22.981Z,9.03
2018-09-08T09:09:26.939Z,7.60
2018-09-08T09:10:31.093Z,8.33
2018-09-08T09:11:35.797Z,7.92
2018-09-08T09:12:39.976Z,8.50
2018-09-08T09:13:44.280Z,7.85
2018-09-08T09:14:48.722Z,7.35
2018-09-08T09:15:52.821Z,8.25
2018-09-08T09:16:57.031Z,7.17
2018-09-08T09:18:01.175Z,7.30
2018-09-08T09:19:29.870Z,7.03
2018-09-08T09:20:45.522Z,6.28
2018-09-08T09:22:01.165Z,7.03
2018-09-08T09:23:20.794Z,6.95
2018-09-08T09:25:08.103Z,6.85
2018-09-08T09:26:12.568Z,6.00
2018-09-08T09:27:16.818Z,6.28
2018-09-08T09:28:20.917Z,5.92
2018-09-08T09:29:25.245Z,6.10
2018-09-08T09:30:29.502Z,6.83
2018-09-08T09:31:33.760Z,7.50
2018-09-08T09:32:37.927Z,6.47
2018-09-08T09:33:42.290Z,6.45
2018-09-08T09:34:46.518Z,7.22
2018-09-08T09:35:50.788Z,7.15
2018-09-08T09:36:54.923Z,8.65
2018-09-08T09:37:59.894Z,8.10
2018-09-08T09:39:04.607Z,7.65
2018-09-08T09:40:09.560Z,9.73
2018-09-08T09:41:13.585Z,8.03
2018-09-08T09:42:17.807Z,8.48
2018-09-08T09:43:22.049Z,8.83
2018-09-08T09:44:26.321Z,7.78
2018-09-08T09:45:30.659Z,7.90
2018-09-08T09:46:34.992Z,8.55
2018-09-08T09:47:39.554Z,8.00
2018-09-08T09:48:43.723Z,6.87
2018-09-08T09:49:48.194Z,8.65
2018-09-08T09:50:52.389Z,7.62
2018-09-08T09:51:56.733Z,8.10
2018-09-08T09:53:01.173Z,7.22
2018-09-08T09:54:05.349Z,7.78
2018-09-08T09:55:09.763Z,7.90
2018-09-08T09:56:13.959Z,7.10
2018-09-08T09:57:18.128Z,7.83
2018-09-08T09:58:22.394Z,7.10
2018-09-08T09:59:26.955Z,7.22
2018-09-08T10:00:36.801Z,7.72
2018-09-08T10:01:43.158Z,7.10
2018-09-08T10:02:49.408Z,8.75
2018-09-08T10:03:53.633Z,7.20
2018-09-08T10:04:58.192Z,7.00
2018-09-08T10:06:02.707Z,7.92
2018-09-08T10:07:09.462Z,7.42
2018-09-08T10:08:13.642Z,6.40
2018-09-08T10:09:17.989Z,7.40
2018-09-08T10:10:24.013Z,7.95
2018-09-08T10:11:28.187Z,6.97
2018-09-08T10:12:32.490Z,6.95
2018-09-08T10:13:36.690Z,7.05
2018-09-08T10:14:41.032Z,8.73
2018-09-08T10:15:45.131Z,7.17
2018-09-08T10:16:49.333Z,10.38
2018-09-08T10:17:53.520Z,7.65
2018-09-08T10:18:57.748Z,7.12
2018-09-08T10:20:02.302Z,8.80
2018-09-08T10:21:06.440Z,8.58
2018-09-08T10:22:10.669Z,8.48
2018-09-08T10:23:14.868Z,8.50
2018-09-08T10:24:19.010Z,9.10
2018-09-08T10:25:23.147Z,6.95
2018-09-08T10:26:27.565Z,7.45
2018-09-08T10:27:31.619Z,8.28
2018-09-08T10:28:36.198Z,8.00
2018-09-08T10:29:40.588Z,7.17
2018-09-08T10:30:44.726Z,7.85
2018-09-08T10:31:49.484Z,6.80
2018-09-08T10:32:53.633Z,7.28
2018-09-08T10:33:57.929Z,7.17
2018-09-08T10:35:02.198Z,7.60
2018-09-08T10:36:07.064Z,6.83
2018-09-08T10:37:11.373Z,7.78
2018-09-08T10:38:15.670Z,8.23
2018-09-08T10:39:19.886Z,7.28
2018-09-08T10:40:24.473Z,6.37
2018-09-08T10:41:28.866Z,7.90
2018-09-08T10:42:33.160Z,5.45
2018-09-08T10:43:37.686Z,6.12
2018-09-08T10:44:42.091Z,6.97
2018-09-08T10:45:46.403Z,6.20
2018-09-08T10:46:50.860Z,5.83
2018-09-08T10:47:55.246Z,6.78
2018-09-08T10:48:59.483Z,9.18
2018-09-08T10:50:03.572Z,8.30
2018-09-08T10:51:21.297Z,6.42
2018-09-08T10:52:32.504Z,7.30
2018-09-08T10:53:36.729Z,6.65
2018-09-08T10:54:40.985Z,7.42
2018-09-08T10:55:45.419Z,6.85
2018-09-08T10:56:49.804Z,7.30
2018-09-08T10:57:54.156Z,7.25
2018-09-08T10:58:58.528Z,6.97
2018-09-08T11:00:03.565Z,6.78
2018-09-08T11:01:07.946Z,6.20
2018-09-08T11:02:12.391Z,6.70
2018-09-08T11:03:16.429Z,8.48
2018-09-08T11:04:20.751Z,6.28
2018-09-08T11:05:25.290Z,5.95
2018-09-08T11:06:29.601Z,6.30
2018-09-08T11:07:34.128Z,6.25
2018-09-08T11:08:38.223Z,6.28
2018-09-08T11:09:42.756Z,6.42
2018-09-08T11:10:47.194Z,5.80
2018-09-08T11:11:51.388Z,8.48
2018-09-08T11:12:55.671Z,6.53
2018-09-08T11:13:59.842Z,7.50
2018-09-08T11:15:04.186Z,6.67
2018-09-08T11:16:08.310Z,6.95
2018-09-08T11:17:12.858Z,5.72
2018-09-08T11:18:17.084Z,6.55
2018-09-08T11:19:21.411Z,5.20
2018-09-08T11:20:25.850Z,6.30
2018-09-08T11:21:29.986Z,6.15
2018-09-08T11:22:34.480Z,6.92
2018-09-08T11:23:38.754Z,6.05
2018-09-08T11:24:43.106Z,5.37
2018-09-08T11:25:47.375Z,7.20
2018-09-08T11:26:51.552Z,8.00
2018-09-08T11:27:55.721Z,6.80
2018-09-08T11:28:59.890Z,5.58
2018-09-08T11:30:04.070Z,7.47
2018-09-08T11:31:08.425Z,6.78
2018-09-08T11:32:12.934Z,6.67
2018-09-08T11:33:17.405Z,6.90
2018-09-08T11:34:21.713Z,6.25
2018-09-08T11:35:25.797Z,7.22
2018-09-08T11:36:29.923Z,6.03
2018-09-08T11:37:34.100Z,6.42
2018-09-08T11:38:38.459Z,6.03
2018-09-08T11:39:42.655Z,5.75
2018-09-08T11:40:47.206Z,6.97
2018-09-08T11:41:51.345Z,6.05
2018-09-08T11:42:55.637Z,6.15
2018-09-08T11:43:59.739Z,6.15
2018-09-08T11:45:04.070Z,5.87
2018-09-08T11:46:08.194Z,5.53
2018-09-08T11:47:12.343Z,6.22
2018-09-08T11:48:16.637Z,11.80
2018-09-08T11:49:20.982Z,10.53
2018-09-08T11:50:25.079Z,6.30
2018-09-08T11:51:29.509Z,5.53
2018-09-08T11:52:33.553Z,6.90
2018-09-08T11:53:37.813Z,6.60
2018-09-08T11:54:42.064Z,8.43
2018-09-08T11:55:46.515Z,6.08
2018-09-08T11:56:50.962Z,5.60
2018-09-08T11:57:55.100Z,6.75
2018-09-08T11:58:59.451Z,7.62
2018-09-08T12:00:03.769Z,7.92
2018-09-08T12:01:08.125Z,6.10
2018-09-08T12:02:12.746Z,7.70
2018-09-08T12:03:16.929Z,6.47
2018-09-08T12:04:21.205Z,7.65
2018-09-08T12:05:25.400Z,6.47
2018-09-08T12:06:29.794Z,6.40
2018-09-08T12:07:33.925Z,6.28
2018-09-08T12:08:38.353Z,8.43
2018-09-08T12:09:42.549Z,7.25
2018-09-08T12:10:46.918Z,7.30
2018-09-08T12:11:51.192Z,5.75
2018-09-08T12:12:55.398Z,6.35
2018-09-08T12:13:59.551Z,5.83
2018-09-08T12:15:03.831Z,10.15
2018-09-08T12:16:07.996Z,8.10
2018-09-08T12:17:12.440Z,6.65
2018-09-08T12:18:16.661Z,6.62
2018-09-08T12:19:20.861Z,6.47
2018-09-08T12:20:25.141Z,6.15
2018-09-08T12:21:29.536Z,8.88
2018-09-08T12:22:34.061Z,6.12
2018-09-08T12:23:38.704Z,6.55
2018-09-08T12:24:42.922Z,6.17
2018-09-08T12:25:47.341Z,6.15
2018-09-08T12:26:51.663Z,7.90
2018-09-08T12:27:55.766Z,7.15
2018-09-08T12:29:00.260Z,5.85
2018-09-08T12:30:04.640Z,6.08
2018-09-08T12:31:08.893Z,6.85
2018-09-08T12:32:13.205Z,6.60
2018-09-08T12:33:17.512Z,6.12
2018-09-08T12:34:22.006Z,6.12
2018-09-08T12:35:26.174Z,6.67
2018-09-08T12:36:30.288Z,5.95
2018-09-08T12:37:34.570Z,6.25
2018-09-08T12:38:38.739Z,7.10
2018-09-08T12:39:43.095Z,7.47
2018-09-08T12:40:47.529Z,6.12
2018-09-08T12:41:51.886Z,6.83
2018-09-08T12:42:56.243Z,6.17
2018-09-08T12:44:00.399Z,7.90
2018-09-08T12:45:05.103Z,5.47
2018-09-08T12:46:09.296Z,6.80
2018-09-08T12:47:13.595Z,6.00
2018-09-08T12:48:17.749Z,5.97
2018-09-08T12:49:21.930Z,6.17
2018-09-08T12:50:26.284Z,6.25
2018-09-08T12:51:30.766Z,5.42
2018-09-08T12:52:34.920Z,7.58
2018-09-08T12:53:39.125Z,6.37
2018-09-08T12:54:43.423Z,6.58
2018-09-08T12:55:47.615Z,6.45
2018-09-08T12:56:51.914Z,6.12
2018-09-08T12:57:56.358Z,6.10
2018-09-08T12:59:00.788Z,6.92
2018-09-08T13:00:05.295Z,7.40
2018-09-08T13:01:09.757Z,7.10
2018-09-08T13:02:14.008Z,5.72
2018-09-08T13:03:18.374Z,6.67
2018-09-08T13:04:22.553Z,5.97
2018-09-08T13:05:26.827Z,6.37
2018-09-08T13:06:30.904Z,5.28
2018-09-08T13:07:35.424Z,6.50
2018-09-08T13:08:39.639Z,6.15
2018-09-08T13:09:43.807Z,6.10
2018-09-08T13:10:47.948Z,5.42
2018-09-08T13:11:52.337Z,5.78
2018-09-08T13:12:56.628Z,5.40
2018-09-08T13:14:00.726Z,6.28
2018-09-08T13:15:05.822Z,5.65
2018-09-08T13:16:09.905Z,5.58
2018-09-08T13:17:14.319Z,4.70
2018-09-08T13:18:18.826Z,5.70
2018-09-08T13:19:23.236Z,5.80
2018-09-08T13:20:27.437Z,8.85
2018-09-08T13:21:31.622Z,6.53
2018-09-08T13:22:42.158Z,5.58
2018-09-08T13:23:46.400Z,6.22
2018-09-08T13:24:50.510Z,7.15
2018-09-08T13:25:54.616Z,5.72
2018-09-08T13:26:58.972Z,5.40
2018-09-08T13:28:03.080Z,7.97
2018-09-08T13:29:07.445Z,5.65
2018-09-08T13:30:11.613Z,6.28
2018-09-08T13:31:15.771Z,6.95
2018-09-08T13:32:19.946Z,6.30
2018-09-08T13:33:24.400Z,6.47
2018-09-08T13:34:28.636Z,6.17
2018-09-08T13:35:32.790Z,5.85
2018-09-08T13:36:37.012Z,5.05
2018-09-08T13:37:41.119Z,6.08
2018-09-08T13:38:45.566Z,8.60
2018-09-08T13:39:50.244Z,6.42
2018-09-08T13:40:54.385Z,9.53
2018-09-08T13:41:58.583Z,6.78
2018-09-08T13:43:02.934Z,6.00
2018-09-08T13:44:07.246Z,5.95
2018-09-08T13:45:11.480Z,5.80
2018-09-08T13:46:15.651Z,5.30
2018-09-08T13:47:20.005Z,5.90
2018-09-08T13:48:24.380Z,8.83
2018-09-08T13:49:28.574Z,6.22
2018-09-08T13:50:32.954Z,4.45
2018-09-08T13:51:37.333Z,5.45
2018-09-08T13:52:41.847Z,4.97
2018-09-08T13:53:46.242Z,5.87
2018-09-08T13:54:50.543Z,4.85
2018-09-08T13:55:54.712Z,5.62
2018-09-08T13:56:59.046Z,5.90
2018-09-08T13:58:03.532Z,5.00
2018-09-08T13:59:07.833Z,5.58
2018-09-08T14:00:12.383Z,5.40
2018-09-08T14:01:16.618Z,5.45
2018-09-08T14:02:20.860Z,5.25
2018-09-08T14:03:25.221Z,5.40
2018-09-08T14:04:29.636Z,7.53
2018-09-08T14:05:34.053Z,5.83
2018-09-08T14:06:38.191Z,5.15